Time;durP1;ratioP1;P1;durP2;ratioP2;P2;SDS_P1;SDS_P2;PMS_P1;PMS_P2;Temp;Humidity;BMP_temperature;BMP_pressure;BME280_temperature;BME280_humidity;BME280_pressure;Samples;Min_cycle;Max_cycle;Signal;HPM_P1;HPM_P2
2022/07/05 00:02:24;;;;;;;1999.90;999.90;;;18.00;99.90;;;;;;4973457;28;20288;-76
2022/07/05 00:04:50;;;;;;;1999.90;999.90;;;17.90;99.90;;;;;;4973637;28;20195;-76
2022/07/05 00:07:19;;;;;;;1999.90;999.90;;;17.90;99.90;;;;;;4973228;28;20716;-76
2022/07/05 00:09:56;;;;;;;1999.90;999.90;;;17.80;99.90;;;;;;4973538;28;20609;-76
2022/07/05 00:12:28;;;;;;;1999.90;999.90;;;17.80;99.90;;;;;;4973529;28;20412;-76
2022/07/05 00:14:54;;;;;;;1999.90;999.90;;;17.80;99.90;;;;;;4973390;28;20471;-76
2022/07/05 00:17:20;;;;;;;1999.90;999.90;;;17.70;99.90;;;;;;4973004;28;20410;-75
2022/07/05 00:19:45;;;;;;;1999.90;999.90;;;17.60;99.90;;;;;;4973368;28;20434;-75
2022/07/05 00:22:11;;;;;;;1999.90;999.90;;;17.60;99.90;;;;;;4973224;28;20287;-76
2022/07/05 00:24:37;;;;;;;1999.90;999.90;;;17.60;99.90;;;;;;4973252;28;20179;-76
2022/07/05 00:27:03;;;;;;;1999.90;999.90;;;17.50;99.90;;;;;;4973004;28;20247;-76
2022/07/05 00:29:28;;;;;;;1999.90;999.90;;;17.50;99.90;;;;;;4973209;28;20688;-74
2022/07/05 00:31:54;;;;;;;1999.90;999.90;;;17.50;99.90;;;;;;4973038;28;20441;-76
2022/07/05 00:34:20;;;;;;;1999.90;999.90;;;17.60;99.90;;;;;;4973156;28;20241;-76
2022/07/05 00:36:46;;;;;;;1999.90;999.90;;;17.60;99.90;;;;;;4972912;28;20176;-76
2022/07/05 00:39:12;;;;;;;1999.90;999.90;;;17.60;99.90;;;;;;4973152;28;20213;-76
2022/07/05 00:41:38;;;;;;;1999.90;999.90;;;17.70;99.90;;;;;;4973174;28;21154;-76
2022/07/05 00:44:07;;;;;;;1999.90;999.90;;;17.70;99.90;;;;;;4972989;28;20428;-76
2022/07/05 00:46:33;;;;;;;1999.90;999.90;;;17.70;99.90;;;;;;4972675;28;20186;-76
2022/07/05 00:49:00;;;;;;;1999.90;999.90;;;17.80;99.90;;;;;;4973020;28;20406;-76
2022/07/05 00:51:28;;;;;;;1999.90;999.90;;;17.70;99.90;;;;;;4973181;28;20419;-76
2022/07/05 00:53:54;;;;;;;1999.90;999.90;;;17.60;99.90;;;;;;4972965;28;20440;-76
2022/07/05 00:56:20;;;;;;;1999.90;999.90;;;17.60;99.90;;;;;;4972730;28;20918;-76
2022/07/05 00:58:46;;;;;;;1999.90;999.90;;;17.50;99.90;;;;;;4973036;28;20169;-76
2022/07/05 01:01:12;;;;;;;1999.90;999.90;;;17.60;99.90;;;;;;4972787;28;20461;-76
2022/07/05 01:03:38;;;;;;;1999.90;999.90;;;17.60;99.90;;;;;;4972959;28;20559;-76
2022/07/05 01:06:09;;;;;;;1999.90;999.90;;;17.60;99.90;;;;;;4972636;28;20405;-76
2022/07/05 01:08:38;;;;;;;1999.90;999.90;;;17.70;99.90;;;;;;4972968;28;20406;-76
2022/07/05 01:11:04;;;;;;;1999.90;999.90;;;17.60;99.90;;;;;;4972836;28;20411;-76
2022/07/05 01:13:30;;;;;;;1999.90;999.90;;;17.60;99.90;;;;;;4972819;28;20517;-76
2022/07/05 01:15:56;;;;;;;1999.90;999.90;;;17.50;99.90;;;;;;4972599;28;20498;-74
2022/07/05 01:18:22;;;;;;;1999.90;999.90;;;17.30;99.90;;;;;;4972807;28;20440;-76
2022/07/05 01:20:49;;;;;;;1999.90;999.90;;;17.10;99.90;;;;;;4972759;28;20483;-76
2022/07/05 01:23:17;;;;;;;1999.90;999.90;;;17.00;99.90;;;;;;4972715;28;20429;-76
2022/07/05 01:25:44;;;;;;;1999.90;999.90;;;17.00;99.90;;;;;;4972617;28;20409;-76
2022/07/05 01:28:09;;;;;;;1999.90;999.90;;;17.00;99.90;;;;;;4972461;28;20409;-76
2022/07/05 01:30:36;;;;;;;1999.90;999.90;;;17.00;99.90;;;;;;4972629;28;20411;-75
2022/07/05 01:33:04;;;;;;;1999.90;999.90;;;16.80;99.90;;;;;;4972663;28;20168;-76
2022/07/05 01:35:30;;;;;;;1999.90;999.90;;;16.80;99.90;;;;;;4972599;28;20436;-76
2022/07/05 01:37:55;;;;;;;1999.90;999.90;;;16.70;99.90;;;;;;4972276;28;20409;-75
2022/07/05 01:40:21;;;;;;;1999.90;999.90;;;16.70;99.90;;;;;;4972597;28;20186;-76
2022/07/05 01:42:47;;;;;;;1999.90;999.90;;;16.70;99.90;;;;;;4972621;28;20208;-76
2022/07/05 01:45:38;;;;;;;1999.90;999.90;;;16.80;99.90;;;;;;4975002;28;20444;-76
2022/07/05 01:48:00;;;;;;;1999.90;999.90;;;16.80;99.90;;;;;;4975579;28;20415;-76
2022/07/05 01:50:29;;;;;;;1999.90;999.90;;;16.70;99.90;;;;;;4975929;28;20408;-76
2022/07/05 01:52:58;;;;;;;1999.90;999.90;;;16.70;99.90;;;;;;4975880;28;21087;-76
2022/07/05 01:55:24;;;;;;;1999.90;999.90;;;16.70;99.90;;;;;;4975819;28;20457;-75
2022/07/05 01:57:50;;;;;;;1999.90;999.90;;;16.70;99.90;;;;;;4975573;28;20512;-76
2022/07/05 02:00:16;;;;;;;1999.90;999.90;;;16.70;99.90;;;;;;4975726;28;20186;-75
2022/07/05 02:02:42;;;;;;;1999.90;999.90;;;16.70;99.90;;;;;;4975629;28;20457;-76
2022/07/05 02:05:08;;;;;;;1999.90;999.90;;;16.70;99.90;;;;;;4975591;28;20248;-76
2022/07/05 02:07:33;;;;;;;1999.90;999.90;;;16.70;99.90;;;;;;4975416;28;20408;-76
2022/07/05 02:09:59;;;;;;;1999.90;999.90;;;16.80;99.90;;;;;;4975624;28;20411;-75
2022/07/05 02:12:24;;;;;;;1999.90;999.90;;;16.90;99.90;;;;;;4975530;28;20255;-76
2022/07/05 02:14:50;;;;;;;1999.90;999.90;;;17.00;99.90;;;;;;4975387;28;20394;-75
2022/07/05 02:17:16;;;;;;;1999.90;999.90;;;17.00;99.90;;;;;;4975221;28;20173;-76
2022/07/05 02:19:41;;;;;;;1999.90;999.90;;;16.80;99.90;;;;;;4975383;28;20662;-76
2022/07/05 02:22:07;;;;;;;1999.90;999.90;;;16.70;99.90;;;;;;4975238;28;20204;-75
2022/07/05 02:24:33;;;;;;;1999.90;999.90;;;16.70;99.90;;;;;;4975263;28;20194;-76
2022/07/05 02:26:59;;;;;;;1999.90;999.90;;;16.60;99.90;;;;;;4975003;28;20904;-75
2022/07/05 02:29:25;;;;;;;1999.90;999.90;;;16.60;99.90;;;;;;4975167;28;20166;-75
2022/07/05 02:31:50;;;;;;;1999.90;999.90;;;16.60;99.90;;;;;;4975217;28;20419;-76
2022/07/05 02:34:16;;;;;;;1999.90;999.90;;;16.60;99.90;;;;;;4975083;28;20578;-76
2022/07/05 02:36:42;;;;;;;1999.90;999.90;;;16.70;99.90;;;;;;4974893;28;20176;-76
2022/07/05 02:39:07;;;;;;;1999.90;999.90;;;16.70;99.90;;;;;;4975073;28;20170;-76
2022/07/05 02:41:33;;;;;;;1999.90;999.90;;;16.70;99.90;;;;;;4975009;28;20205;-75
2022/07/05 02:43:59;;;;;;;1999.90;999.90;;;16.60;99.90;;;;;;4974921;28;20221;-76
2022/07/05 02:46:24;;;;;;;1999.90;999.90;;;16.60;99.90;;;;;;4974618;28;20182;-76
2022/07/05 02:48:52;;;;;;;1999.90;999.90;;;16.60;99.90;;;;;;4974891;28;20169;-76
2022/07/05 02:51:18;;;;;;;1999.90;999.90;;;16.60;99.90;;;;;;4974843;28;20167;-75
2022/07/05 02:53:43;;;;;;;1999.90;999.90;;;16.70;99.90;;;;;;4974740;28;20432;-75
2022/07/05 02:56:09;;;;;;;1999.90;999.90;;;16.80;99.90;;;;;;4973365;28;20589;-76
2022/07/05 02:58:36;;;;;;;1999.90;999.90;;;16.70;99.90;;;;;;4974752;28;20843;-76
2022/07/05 03:01:01;;;;;;;1999.90;999.90;;;16.70;99.90;;;;;;4974564;28;20207;-75
2022/07/05 03:03:27;;;;;;;1999.90;999.90;;;16.70;99.90;;;;;;4974474;28;20419;-75
2022/07/05 03:05:53;;;;;;;1999.90;999.90;;;16.60;99.90;;;;;;4974513;28;20741;-76
2022/07/05 03:08:18;;;;;;;1999.90;999.90;;;16.60;99.90;;;;;;4974345;28;20169;-76
2022/07/05 03:10:44;;;;;;;1999.90;999.90;;;16.60;99.90;;;;;;4974462;28;20176;-75
2022/07/05 03:13:10;;;;;;;1999.90;999.90;;;16.70;99.90;;;;;;4974436;28;20217;-76
2022/07/05 03:15:35;;;;;;;1999.90;999.90;;;16.60;99.90;;;;;;4974317;28;20184;-76
2022/07/05 03:18:01;;;;;;;1999.90;999.90;;;16.70;99.90;;;;;;4974032;28;20177;-76
2022/07/05 03:20:27;;;;;;;1999.90;999.90;;;16.70;99.90;;;;;;4974326;28;20648;-75
2022/07/05 03:22:52;;;;;;;1999.90;999.90;;;16.80;99.90;;;;;;4974188;28;20197;-76
2022/07/05 03:25:18;;;;;;;1999.90;999.90;;;16.80;99.90;;;;;;4974145;28;20624;-76
2022/07/05 03:27:43;;;;;;;1999.90;999.90;;;16.80;99.90;;;;;;4973860;28;20168;-76
2022/07/05 03:30:10;;;;;;;1999.90;999.90;;;16.80;99.90;;;;;;4974166;28;20249;-76
2022/07/05 03:32:35;;;;;;;1999.90;999.90;;;16.80;99.90;;;;;;4974054;28;20205;-76
2022/07/05 03:35:01;;;;;;;1999.90;999.90;;;16.80;99.90;;;;;;4974173;28;20442;-76
2022/07/05 03:37:27;;;;;;;1999.90;999.90;;;16.90;99.90;;;;;;4973692;28;20174;-76
2022/07/05 03:39:52;;;;;;;1999.90;999.90;;;16.80;99.90;;;;;;4973976;28;20196;-76
2022/07/05 03:42:18;;;;;;;1999.90;999.90;;;16.90;99.90;;;;;;4973815;28;20202;-76
2022/07/05 03:44:43;;;;;;;1999.90;999.90;;;16.90;99.90;;;;;;4974238;28;20243;-76
2022/07/05 03:47:09;;;;;;;1999.90;999.90;;;16.90;99.90;;;;;;4973705;28;20159;-75
2022/07/05 03:49:35;;;;;;;1999.90;999.90;;;16.90;99.90;;;;;;4974253;28;20179;-75
2022/07/05 03:52:00;;;;;;;1999.90;999.90;;;17.00;99.90;;;;;;4974298;28;20178;-76
2022/07/05 03:54:26;;;;;;;1999.90;999.90;;;17.00;99.90;;;;;;4974093;28;20253;-76
2022/07/05 03:56:51;;;;;;;1999.90;999.90;;;17.00;99.90;;;;;;4973939;28;20283;-76
2022/07/05 03:59:17;;;;;;;1999.90;999.90;;;17.00;99.90;;;;;;4974133;28;20640;-76
2022/07/05 04:01:42;;;;;;;1999.90;999.90;;;17.00;99.90;;;;;;4974187;28;20201;-76
2022/07/05 04:04:08;;;;;;;1999.90;999.90;;;17.10;99.90;;;;;;4974341;28;20191;-75
2022/07/05 04:06:34;;;;;;;1999.90;999.90;;;17.10;99.90;;;;;;4973551;28;20183;-76
2022/07/05 04:08:59;;;;;;;1999.90;999.90;;;17.20;99.90;;;;;;4974190;28;20171;-76
2022/07/05 04:11:25;;;;;;;1999.90;999.90;;;17.30;99.90;;;;;;4974114;28;20182;-76
2022/07/05 04:13:50;;;;;;;1999.90;999.90;;;17.20;99.90;;;;;;4973958;28;20250;-76
2022/07/05 04:16:16;;;;;;;1999.90;999.90;;;17.00;99.90;;;;;;4973800;28;20657;-76
2022/07/05 04:18:42;;;;;;;1999.90;999.90;;;16.90;99.90;;;;;;4974124;28;20185;-76
2022/07/05 04:21:07;;;;;;;1999.90;999.90;;;16.80;99.90;;;;;;4973979;28;20219;-76
2022/07/05 04:23:33;;;;;;;1999.90;999.90;;;16.70;99.90;;;;;;4973584;28;20663;-76
2022/07/05 04:26:00;;;;;;;1999.90;999.90;;;16.70;99.90;;;;;;4973366;28;20204;-76
2022/07/05 04:28:26;;;;;;;1999.90;999.90;;;16.60;99.90;;;;;;4973543;28;20670;-76
2022/07/05 04:30:52;;;;;;;1999.90;999.90;;;16.60;99.90;;;;;;4973140;28;20405;-76
2022/07/05 04:33:17;;;;;;;1999.90;999.90;;;16.60;99.90;;;;;;4973164;28;20247;-75
2022/07/05 04:35:43;;;;;;;1999.90;999.90;;;16.70;99.90;;;;;;4973161;28;20403;-76
2022/07/05 04:38:09;;;;;;;1999.90;999.90;;;16.80;99.90;;;;;;4972940;28;20173;-76
2022/07/05 04:40:35;;;;;;;1999.90;999.90;;;16.90;99.90;;;;;;4973083;28;20408;-76
2022/07/05 04:43:00;;;;;;;1999.90;999.90;;;16.90;99.90;;;;;;4973120;28;20181;-76
2022/07/05 04:45:26;;;;;;;1999.90;999.90;;;17.10;99.90;;;;;;4972856;28;20227;-75
2022/07/05 04:47:52;;;;;;;1999.90;999.90;;;17.20;99.90;;;;;;4972817;28;20654;-75
2022/07/05 04:50:17;;;;;;;1999.90;999.90;;;17.20;99.90;;;;;;4973080;28;20170;-76
2022/07/05 04:52:43;;;;;;;1999.90;999.90;;;17.20;99.90;;;;;;4973048;28;20167;-76
2022/07/05 04:55:09;;;;;;;1999.90;999.90;;;17.30;99.90;;;;;;4973040;28;20196;-76
2022/07/05 04:57:39;;;;;;;1999.90;999.90;;;17.40;99.90;;;;;;4972633;28;20276;-76
2022/07/05 05:00:05;;;;;;;1999.90;999.90;;;17.40;99.90;;;;;;4973045;28;20551;-76
2022/07/05 05:02:31;;;;;;;1999.90;999.90;;;17.40;99.90;;;;;;4972849;28;20454;-76
2022/07/05 05:04:57;;;;;;;1999.90;999.90;;;17.50;99.90;;;;;;4972869;28;20443;-76
2022/07/05 05:07:22;;;;;;;1999.90;999.90;;;17.70;99.90;;;;;;4972597;28;20175;-75
2022/07/05 05:09:48;;;;;;;1999.90;999.90;;;17.80;99.90;;;;;;4972940;28;20179;-76
2022/07/05 05:12:14;;;;;;;1999.90;999.90;;;17.90;99.90;;;;;;4972819;28;20260;-76
2022/07/05 05:14:39;;;;;;;1999.90;999.90;;;18.00;99.90;;;;;;4972798;28;20282;-76
2022/07/05 05:17:05;;;;;;;1999.90;999.90;;;18.10;99.90;;;;;;4972482;28;20180;-76
2022/07/05 05:19:30;;;;;;;1999.90;999.90;;;18.20;99.90;;;;;;4974598;28;20178;-76
2022/07/05 05:21:56;;;;;;;1999.90;999.90;;;18.30;99.90;;;;;;4976515;28;20929;-76
2022/07/05 05:24:22;;;;;;;1999.90;999.90;;;18.30;99.90;;;;;;4976422;28;20203;-75
2022/07/05 05:26:47;;;;;;;1999.90;999.90;;;18.40;99.90;;;;;;4976075;28;20567;-76
2022/07/05 05:29:13;;;;;;;1999.90;999.90;;;18.40;99.90;;;;;;4976440;28;20637;-75
2022/07/05 05:31:38;;;;;;;1999.90;999.90;;;18.30;99.90;;;;;;4976310;28;20177;-75
2022/07/05 05:34:04;;;;;;;1999.90;999.90;;;18.40;99.90;;;;;;4976191;28;20200;-76
2022/07/05 05:36:29;;;;;;;1999.90;999.90;;;18.40;99.90;;;;;;4975949;28;20583;-75
2022/07/05 05:38:55;;;;;;;1999.90;999.90;;;18.50;99.90;;;;;;4976148;28;20217;-76
2022/07/05 05:41:21;;;;;;;1999.90;999.90;;;18.50;99.90;;;;;;4976044;28;20203;-76
2022/07/05 05:43:46;;;;;;;1999.90;999.90;;;18.60;99.90;;;;;;4975969;28;20188;-76
2022/07/05 05:46:12;;;;;;;1999.90;999.90;;;18.70;99.90;;;;;;4975624;28;20190;-75
2022/07/05 05:48:37;;;;;;;1999.90;999.90;;;18.80;99.90;;;;;;4975973;28;20175;-75
2022/07/05 05:51:04;;;;;;;1999.90;999.90;;;18.80;99.90;;;;;;4976032;28;20179;-76
2022/07/05 05:53:30;;;;;;;1999.90;999.90;;;18.90;99.90;;;;;;4975860;28;20179;-76
2022/07/05 05:55:56;;;;;;;1999.90;999.90;;;18.80;99.90;;;;;;4975686;28;20899;-72
2022/07/05 05:58:25;;;;;;;1999.90;999.90;;;18.80;99.90;;;;;;4975752;28;20186;-74
2022/07/05 06:00:52;;;;;;;1999.90;999.90;;;18.70;99.90;;;;;;4975787;28;20584;-76
2022/07/05 06:03:26;;;;;;;1999.90;999.90;;;18.70;99.90;;;;;;4975616;28;20410;-76
2022/07/05 06:05:52;;;;;;;1999.90;999.90;;;18.60;99.90;;;;;;4975496;28;20412;-75
2022/07/05 06:08:19;;;;;;;1999.90;999.90;;;18.60;99.90;;;;;;4975510;28;20503;-75
2022/07/05 06:10:45;;;;;;;1999.90;999.90;;;18.60;99.90;;;;;;4975503;28;20430;-76
2022/07/05 06:13:12;;;;;;;1999.90;999.90;;;18.60;99.90;;;;;;4975546;28;20442;-76
2022/07/05 06:15:38;;;;;;;1999.90;999.90;;;18.40;99.90;;;;;;4975533;28;20182;-76
2022/07/05 06:18:04;;;;;;;1999.90;999.90;;;18.60;99.90;;;;;;4975311;28;20414;-76
2022/07/05 06:20:34;;;;;;;1999.90;999.90;;;18.70;99.90;;;;;;4975392;28;20439;-76
2022/07/05 06:23:02;;;;;;;1999.90;999.90;;;18.80;99.90;;;;;;4975342;28;20516;-76
2022/07/05 06:25:28;;;;;;;1999.90;999.90;;;18.90;99.90;;;;;;4975180;28;20436;-76
2022/07/05 06:27:57;;;;;;;1999.90;999.90;;;18.90;99.90;;;;;;4975036;28;20412;-76
2022/07/05 06:30:24;;;;;;;1999.90;999.90;;;19.00;99.90;;;;;;4974946;28;20416;-74
2022/07/05 06:32:51;;;;;;;1999.90;999.90;;;19.00;99.90;;;;;;4975299;28;20416;-76
2022/07/05 06:35:18;;;;;;;1999.90;999.90;;;19.00;99.90;;;;;;4975087;28;20445;-76
2022/07/05 06:38:02;;;;;;;1999.90;999.90;;;18.90;99.90;;;;;;4974806;28;20428;-76
2022/07/05 06:40:37;;;;;;;1999.90;999.90;;;19.00;99.90;;;;;;4975101;28;20564;-76
2022/07/05 06:43:05;;;;;;;1999.90;999.90;;;19.10;99.90;;;;;;4975115;28;20543;-76
2022/07/05 06:45:32;;;;;;;1999.90;999.90;;;19.20;99.90;;;;;;4974805;28;20457;-76
2022/07/05 06:48:00;;;;;;;1999.90;999.90;;;19.30;99.90;;;;;;4974657;28;20447;-76
2022/07/05 06:50:27;;;;;;;1999.90;999.90;;;19.40;99.90;;;;;;4974845;28;20423;-76
2022/07/05 06:52:53;;;;;;;1999.90;999.90;;;19.40;99.90;;;;;;4974787;28;20826;-75
2022/07/05 06:55:19;;;;;;;1999.90;999.90;;;19.50;99.90;;;;;;4974768;28;20444;-76
2022/07/05 06:57:45;;;;;;;1999.90;999.90;;;19.60;99.90;;;;;;4974560;28;20541;-75
2022/07/05 07:00:12;;;;;;;1999.90;999.90;;;19.60;99.90;;;;;;4974763;28;20427;-75
2022/07/05 07:02:37;;;;;;;1999.90;999.90;;;19.50;99.90;;;;;;4974549;28;20462;-75
2022/07/05 07:05:03;;;;;;;1999.90;999.90;;;19.40;99.90;;;;;;4974547;28;20525;-75
2022/07/05 07:10:17;;;;;;;1999.90;999.90;;;19.30;99.90;;;;;;4974514;28;20463;-75
2022/07/05 07:12:42;;;;;;;1999.90;999.90;;;19.40;99.90;;;;;;4970464;28;20505;-75
2022/07/05 07:15:08;;;;;;;1999.90;999.90;;;19.30;99.90;;;;;;4973827;28;20212;-74
2022/07/05 07:17:34;;;;;;;1999.90;999.90;;;19.40;99.90;;;;;;4973624;28;20256;-75
2022/07/05 07:20:00;;;;;;;1999.90;999.90;;;19.40;99.90;;;;;;4972890;28;20503;-74
2022/07/05 07:22:25;;;;;;;1999.90;999.90;;;19.30;99.90;;;;;;4973207;28;20668;-75
2022/07/05 07:24:51;;;;;;;1999.90;999.90;;;19.50;99.90;;;;;;4973335;28;20193;-75
2022/07/05 07:27:17;;;;;;;1999.90;999.90;;;19.60;99.90;;;;;;4973038;28;20512;-75
2022/07/05 07:29:42;;;;;;;1999.90;999.90;;;19.60;99.90;;;;;;4973224;28;20177;-75
2022/07/05 07:32:09;;;;;;;1999.90;999.90;;;19.70;99.90;;;;;;4973521;28;20265;-75
2022/07/05 07:34:39;;;;;;;1999.90;999.90;;;19.80;99.90;;;;;;4971409;28;20197;-75
2022/07/05 07:37:05;;;;;;;1999.90;999.90;;;19.90;99.90;;;;;;4973096;28;20421;-75
2022/07/05 07:39:31;;;;;;;1999.90;999.90;;;19.90;99.90;;;;;;4973649;28;20412;-75
2022/07/05 07:41:57;;;;;;;1999.90;999.90;;;19.90;99.90;;;;;;4972370;28;20453;-75
2022/07/05 07:44:23;;;;;;;1999.90;999.90;;;19.90;99.90;;;;;;4973378;28;20463;-75
2022/07/05 07:46:50;;;;;;;1999.90;999.90;;;20.10;99.90;;;;;;4972555;28;20871;-75
2022/07/05 07:49:16;;;;;;;1999.90;999.90;;;20.10;99.90;;;;;;4973137;28;20780;-75
2022/07/05 07:51:42;;;;;;;1999.90;999.90;;;20.20;99.90;;;;;;4971289;28;20492;-73
2022/07/05 07:54:08;;;;;;;1999.90;999.90;;;20.40;99.90;;;;;;4972711;28;20426;-72
2022/07/05 07:56:33;;;;;;;1999.90;999.90;;;20.50;99.90;;;;;;4972238;28;20180;-73
2022/07/05 07:58:59;;;;;;;1999.90;999.90;;;20.40;99.90;;;;;;4972659;28;20178;-73
2022/07/05 08:01:24;;;;;;;1999.90;999.90;;;20.40;99.90;;;;;;4972340;28;20202;-74
2022/07/05 08:03:54;;;;;;;1999.90;999.90;;;20.50;99.90;;;;;;4972541;28;20714;-72
2022/07/05 08:06:20;;;;;;;1999.90;999.90;;;20.70;99.90;;;;;;4970494;28;20179;-73
2022/07/05 08:08:47;;;;;;;1999.90;999.90;;;20.80;99.90;;;;;;4972860;28;20460;-73
2022/07/05 08:11:14;;;;;;;1999.90;999.90;;;20.80;99.90;;;;;;4970867;28;20179;-71
2022/07/05 08:13:40;;;;;;;1999.90;999.90;;;20.90;99.90;;;;;;4971739;28;20487;-72
2022/07/05 08:16:07;;;;;;;1999.90;999.90;;;21.00;99.90;;;;;;4972190;28;20814;-73
2022/07/05 08:21:30;;;;;;;1999.90;999.90;;;21.30;99.90;;;;;;4972629;28;20515;-73
2022/07/05 08:23:57;;;;;;;1999.90;999.90;;;21.30;99.90;;;;;;4956429;28;20455;-74
2022/07/05 08:26:23;;;;;;;1999.90;999.90;;;21.20;99.90;;;;;;4969849;28;20481;-76
2022/07/05 08:28:49;;;;;;;1999.90;999.90;;;21.30;99.90;;;;;;4971959;28;21155;-76
2022/07/05 08:31:15;;;;;;;1999.90;999.90;;;21.40;99.90;;;;;;4970874;28;20180;-76
2022/07/05 08:33:41;;;;;;;1999.90;999.90;;;21.40;99.90;;;;;;4971558;28;20445;-76
2022/07/05 08:36:07;;;;;;;1999.90;999.90;;;21.50;99.90;;;;;;4971542;28;20212;-76
2022/07/05 08:38:33;;;;;;;1999.90;999.90;;;21.50;99.90;;;;;;4972280;28;20177;-76
2022/07/05 08:41:00;;;;;;;1999.90;999.90;;;21.70;99.90;;;;;;4971906;28;20420;-76
2022/07/05 08:43:28;;;;;;;1999.90;999.90;;;21.90;99.90;;;;;;4972764;28;20686;-76
2022/07/05 08:45:54;;;;;;;1999.90;999.90;;;22.20;99.90;;;;;;4972127;28;20520;-76
2022/07/05 08:48:21;;;;;;;1999.90;999.90;;;22.10;99.90;;;;;;4971945;28;20409;-76
2022/07/05 08:50:49;;;;;;;1999.90;999.90;;;22.10;99.90;;;;;;4972244;28;20419;-76
2022/07/05 08:53:21;;;;;;;1999.90;999.90;;;22.20;99.90;;;;;;4973604;28;20508;-76
2022/07/05 08:55:47;;;;;;;1999.90;999.90;;;22.30;99.90;;;;;;4975758;28;20472;-76
2022/07/05 08:58:13;;;;;;;1999.90;999.90;;;22.40;99.90;;;;;;4975849;28;20392;-76
2022/07/05 09:00:39;;;;;;;1999.90;999.90;;;22.40;99.90;;;;;;4974908;28;20438;-76
2022/07/05 09:03:06;;;;;;;1999.90;999.90;;;22.50;99.50;;;;;;4975069;28;20445;-76
2022/07/05 09:05:39;;;;;;;1999.90;999.90;;;22.60;99.90;;;;;;4975814;28;20240;-76
2022/07/05 09:08:07;;;;;;;1999.90;999.90;;;22.60;99.90;;;;;;4975561;28;20393;-76
2022/07/05 09:10:33;;;;;;;1999.90;999.90;;;22.90;99.90;;;;;;4974908;28;20418;-76
2022/07/05 09:12:59;;;;;;;1999.90;999.90;;;23.00;95.70;;;;;;4975512;28;20406;-77
2022/07/05 09:15:25;;;;;;;1999.90;999.90;;;23.30;94.60;;;;;;4975888;28;20483;-76
2022/07/05 09:17:50;;;;;;;1999.90;999.90;;;23.40;94.10;;;;;;4975174;28;20679;-77
2022/07/05 09:20:18;;;;;;;1999.90;999.90;;;23.60;94.40;;;;;;4975872;28;20703;-76
2022/07/05 09:22:52;;;;;;;1999.90;999.90;;;23.70;94.70;;;;;;4975777;28;20201;-77
2022/07/05 09:25:23;;;;;;;1999.90;999.90;;;23.60;87.00;;;;;;4975188;28;20412;-77
2022/07/05 09:27:49;;;;;;;1999.90;999.90;;;23.40;90.90;;;;;;4975479;28;20475;-77
2022/07/05 09:30:44;;;;;;;1999.90;999.90;;;23.30;90.00;;;;;;4975569;28;20388;-76
2022/07/05 09:33:11;;;;;;;1999.90;999.90;;;23.30;92.10;;;;;;4962480;28;20190;-76
2022/07/05 09:35:42;;;;;;;1999.90;999.90;;;23.50;90.00;;;;;;4975240;28;20443;-76
2022/07/05 09:38:18;;;;;;;1999.90;999.90;;;23.50;89.40;;;;;;4975242;28;20401;-76
2022/07/05 09:40:48;;;;;;;1999.90;999.90;;;23.50;86.30;;;;;;4974943;28;20495;-76
2022/07/05 09:43:25;;;;;;;1999.90;999.90;;;23.70;90.60;;;;;;4975376;28;20400;-76
2022/07/05 09:45:59;;;;;;;1999.90;999.90;;;23.60;79.00;;;;;;4974968;28;20452;-76
2022/07/05 09:48:26;;;;;;;1999.90;999.90;;;23.60;78.10;;;;;;4975140;28;20742;-71
2022/07/05 09:50:52;;;;;;;1999.90;999.90;;;23.60;74.30;;;;;;4975215;28;20440;-70
2022/07/05 09:53:19;;;;;;;1999.90;999.90;;;23.50;76.00;;;;;;4975254;28;20917;-70
2022/07/05 09:56:05;;;;;;;1999.90;999.90;;;23.60;78.20;;;;;;4974025;28;20166;-70
2022/07/05 09:58:30;;;;;;;1999.90;999.90;;;23.50;75.70;;;;;;4974861;28;20396;-74
2022/07/05 10:00:56;;;;;;;1999.90;999.90;;;23.60;71.80;;;;;;4974595;28;20377;-76
2022/07/05 10:03:22;;;;;;;1999.90;999.90;;;24.00;73.60;;;;;;4974999;28;20213;-75
2022/07/05 10:05:48;;;;;;;1999.90;999.90;;;24.40;74.00;;;;;;4974245;28;20398;-76
2022/07/05 10:08:15;;;;;;;1999.90;999.90;;;24.80;70.70;;;;;;4974477;28;20245;-75
2022/07/05 10:10:42;;;;;;;1999.90;999.90;;;24.90;59.40;;;;;;4973858;28;20178;-75
2022/07/05 10:13:09;;;;;;;1999.90;999.90;;;24.80;55.40;;;;;;4974534;28;20384;-75
2022/07/05 10:15:36;;;;;;;1999.90;999.90;;;24.40;58.50;;;;;;4974020;28;20433;-76
2022/07/05 10:18:08;;;;;;;1999.90;999.90;;;23.90;55.50;;;;;;4974307;28;20416;-76
2022/07/05 10:20:36;;;;;;;1999.90;999.90;;;23.70;60.50;;;;;;4974349;28;20399;-76
2022/07/05 10:23:03;;;;;;;1999.90;999.90;;;23.50;62.30;;;;;;4973846;28;20435;-76
2022/07/05 10:25:29;;;;;;;1999.90;999.90;;;23.70;65.90;;;;;;4974216;28;20422;-76
2022/07/05 10:27:56;;;;;;;1999.90;999.90;;;23.70;62.50;;;;;;4974250;28;20392;-76
2022/07/05 10:30:23;;;;;;;1999.90;999.90;;;23.60;66.80;;;;;;4974075;28;20380;-76
2022/07/05 10:32:49;;;;;;;1999.90;999.90;;;23.70;66.90;;;;;;4974049;28;20388;-75
2022/07/05 10:35:19;;;;;;;1999.90;999.90;;;24.00;58.90;;;;;;4973967;28;20496;-75
2022/07/05 10:37:46;;;;;;;1999.90;999.90;;;24.10;53.70;;;;;;4973964;28;20405;-76
2022/07/05 10:40:12;;;;;;;1999.90;999.90;;;24.40;55.20;;;;;;4973912;28;20382;-75
2022/07/05 10:42:42;;;;;;;1999.90;999.90;;;24.80;54.10;;;;;;4974235;28;20506;-75
2022/07/05 10:45:36;;;;;;;1999.90;999.90;;;25.00;53.80;;;;;;4974156;28;20614;-76
2022/07/05 10:48:20;;;;;;;1999.90;999.90;;;25.00;54.40;;;;;;4974297;28;20380;-75
2022/07/05 10:50:49;;;;;;;1999.90;999.90;;;24.90;55.60;;;;;;4974252;28;20452;-75
2022/07/05 10:53:20;;;;;;;1999.90;999.90;;;24.70;56.50;;;;;;4973415;28;20383;-75
2022/07/05 10:55:53;;;;;;;1999.90;999.90;;;24.60;55.40;;;;;;4974068;28;20403;-76
2022/07/05 10:58:29;;;;;;;1999.90;999.90;;;24.30;56.40;;;;;;4973887;28;20392;-76
2022/07/05 11:01:19;;;;;;;1999.90;999.90;;;24.00;57.10;;;;;;4973449;28;20778;-76
2022/07/05 11:03:57;;;;;;;1999.90;999.90;;;24.00;57.20;;;;;;4973755;28;20425;-75
2022/07/05 11:06:30;;;;;;;1999.90;999.90;;;24.20;57.00;;;;;;4973522;28;20376;-75
2022/07/05 11:08:59;;;;;;;1999.90;999.90;;;24.20;55.10;;;;;;4973205;28;20417;-75
2022/07/05 11:11:27;;;;;;;1999.90;999.90;;;24.00;55.30;;;;;;4973689;28;20409;-75
2022/07/05 11:13:58;;;;;;;1999.90;999.90;;;24.10;56.70;;;;;;4973662;28;20428;-75
2022/07/05 11:16:36;;;;;;;1999.90;999.90;;;24.00;58.40;;;;;;4972014;28;20392;-75
2022/07/05 11:19:06;;;;;;;1999.90;999.90;;;23.70;59.50;;;;;;4973770;28;20379;-74
2022/07/05 11:21:33;;;;;;;1999.90;999.90;;;23.60;58.20;;;;;;4973402;28;20478;-75
2022/07/05 11:24:18;;;;;;;1999.90;999.90;;;23.60;56.90;;;;;;4972960;28;20472;-75
2022/07/05 11:26:45;;;;;;;1999.90;999.90;;;23.50;59.60;;;;;;4973377;28;20427;-75
2022/07/05 11:29:51;;;;;;;1999.90;999.90;;;23.60;61.80;;;;;;4973405;28;20401;-75
2022/07/05 11:32:22;;;;;;;1999.90;999.90;;;23.90;58.50;;;;;;4973487;28;20439;-75
2022/07/05 11:34:48;;;;;;;1999.90;999.90;;;24.30;55.60;;;;;;4973097;28;20430;-76
2022/07/05 11:37:34;;;;;;;1999.90;999.90;;;24.50;55.00;;;;;;5067956;28;20667;-76
2022/07/05 11:40:11;;;;;;;1999.90;999.90;;;24.90;53.60;;;;;;5068512;28;20383;-76
2022/07/05 11:42:47;;;;;;;1999.90;999.90;;;24.60;51.30;;;;;;5068506;28;20370;-77
2022/07/05 11:45:13;;;;;;;1999.90;999.90;;;24.20;51.80;;;;;;5067789;28;20424;-76
2022/07/05 11:47:40;;;;;;;1999.90;999.90;;;24.10;52.00;;;;;;5068101;28;20372;-76
2022/07/05 11:50:06;;;;;;;1999.90;999.90;;;24.30;53.70;;;;;;5068446;28;20938;-76
2022/07/05 11:52:33;;;;;;;1999.90;999.90;;;24.70;48.90;;;;;;5067632;28;20361;-76
2022/07/05 11:55:01;;;;;;;1999.90;999.90;;;25.00;48.30;;;;;;5067704;28;20424;-76
2022/07/05 11:57:26;;;;;;;1999.90;999.90;;;25.30;47.30;;;;;;5068107;28;20411;-77
2022/07/05 11:59:52;;;;;;;1999.90;999.90;;;25.70;45.00;;;;;;5067761;28;20455;-76
2022/07/05 12:02:19;;;;;;;1999.90;999.90;;;26.10;45.60;;;;;;5068157;28;20191;-76
2022/07/05 12:04:55;;;;;;;1999.90;999.90;;;26.10;45.30;;;;;;5067998;28;20392;-76
2022/07/05 12:07:40;;;;;;;1999.90;999.90;;;25.70;47.10;;;;;;5067441;28;20425;-73